createdAt,value
2023-02-22T00:13:35.098Z,3.3
2023-02-22T05:25:20.361Z,0.9
2023-02-22T05:36:18.484Z,1.3
2023-02-22T05:41:52.767Z,1
2023-02-22T05:47:47.416Z,0.8
2023-02-22T05:53:03.574Z,1.4
2023-02-22T05:58:33.230Z,1.5
2023-02-22T06:04:05.597Z,1.3
2023-02-22T06:09:40.299Z,1.2
2023-02-22T06:15:10.926Z,0.8
2023-02-22T06:20:48.188Z,0.9
2023-02-22T06:26:40.653Z,0.9
2023-02-22T06:32:00.490Z,1.1
2023-02-22T06:37:35.921Z,1.1
2023-02-22T06:42:53.583Z,0.7
2023-02-22T06:48:48.614Z,0.7
2023-02-22T06:54:13.485Z,1.1
2023-02-22T06:59:50.870Z,1.4
2023-02-22T07:05:12.318Z,2
2023-02-22T07:10:38.786Z,1.7
2023-02-22T07:16:30.567Z,1.8
2023-02-22T07:22:01.134Z,1.8
2023-02-22T07:27:35.178Z,1.7
2023-02-22T07:33:03.528Z,1.7
2023-02-22T07:44:21.423Z,2
2023-02-22T07:49:41.211Z,2.3
2023-02-22T07:55:06.224Z,3.6
2023-02-22T08:01:00.276Z,3.1
2023-02-22T08:06:32.135Z,2.7
2023-02-22T08:11:52.143Z,2.6
2023-02-22T08:17:15.008Z,2.7
2023-02-22T08:22:59.250Z,3.2
2023-02-22T08:28:47.910Z,4.3
2023-02-22T08:34:11.018Z,4.8
2023-02-22T08:39:32.510Z,5.4
2023-02-22T08:45:26.894Z,5.8
2023-02-22T08:50:55.079Z,5.1
2023-02-22T08:56:17.061Z,5.1
2023-02-22T09:02:03.882Z,5.2
2023-02-22T09:07:30.338Z,5.2
2023-02-22T09:13:00.514Z,5.2
2023-02-22T09:18:35.945Z,5.6
2023-02-22T09:24:04.309Z,5.8
2023-02-22T09:30:00.273Z,6.9
2023-02-22T09:46:43.417Z,7
2023-02-22T09:51:58.557Z,7.9
2023-02-22T10:03:10.430Z,7.4
2023-02-22T10:09:00.410Z,8.1
2023-02-22T10:14:36.584Z,7.9
2023-02-22T10:19:43.737Z,8
2023-02-22T10:25:36.238Z,8.8
2023-02-22T10:30:55.453Z,8.4
2023-02-22T10:36:40.709Z,9.1
2023-02-22T10:42:29.111Z,9.5
2023-02-22T10:47:58.720Z,9.3
2023-02-22T10:53:23.327Z,10.2
2023-02-22T10:59:15.271Z,10.1
2023-02-22T11:04:30.718Z,10.5
2023-02-22T11:10:17.813Z,10.7
2023-02-22T11:15:41.831Z,10.5
2023-02-22T11:21:26.455Z,10.7
2023-02-22T11:26:43.541Z,11.1
2023-02-22T11:32:26.088Z,11.1
2023-02-22T11:38:10.138Z,11.2
2023-02-22T11:43:42.161Z,11.2
2023-02-22T11:49:29.844Z,11.4
2023-02-22T11:54:39.646Z,11.7
2023-02-22T12:00:23.242Z,11.7
2023-02-22T12:05:55.771Z,11.8
2023-02-22T12:11:24.792Z,12.2
2023-02-22T12:17:13.779Z,11.9
2023-02-22T12:22:50.876Z,11.8
2023-02-22T12:28:24.113Z,11.8
2023-02-22T12:33:56.280Z,12
2023-02-22T12:39:52.068Z,12.1
2023-02-22T12:50:50.171Z,11.9
2023-02-22T13:01:56.812Z,11.9
2023-02-22T13:07:41.168Z,12
2023-02-22T14:31:55.251Z,11.8
2023-02-22T14:37:26.308Z,11.7
2023-02-22T14:53:59.266Z,11.4
2023-02-22T15:05:01.806Z,11
2023-02-22T15:11:05.119Z,10.7
2023-02-22T15:16:20.014Z,10.4
2023-02-22T15:44:30.934Z,9.3
2023-02-22T15:50:05.907Z,9.2
2023-02-22T15:55:44.683Z,9.1
2023-02-22T16:01:05.453Z,9
2023-02-22T16:06:46.031Z,8.9
2023-02-22T16:12:22.331Z,8.8
2023-02-22T16:18:02.481Z,8.7
2023-02-22T16:23:23.263Z,8.9
2023-02-22T16:28:52.527Z,8.9
2023-02-22T16:34:46.380Z,8.9
2023-02-22T16:40:12.702Z,8.8
2023-02-22T16:45:33.184Z,8.8
2023-02-22T16:51:24.769Z,8.8
2023-02-22T16:56:42.010Z,8.7
2023-02-22T17:02:14.266Z,8.7
2023-02-22T17:07:52.867Z,8.7
2023-02-22T17:13:25.764Z,8.7
2023-02-22T17:19:04.301Z,8.7
2023-02-22T17:24:34.619Z,8.6
2023-02-22T17:30:11.498Z,8.5
2023-02-22T17:35:42.446Z,8.5
2023-02-22T17:41:17.779Z,8.5
2023-02-22T17:47:01.556Z,8.5
2023-02-22T17:52:27.648Z,8.3
2023-02-22T17:58:03.505Z,8.3
2023-02-22T18:03:20.055Z,8.4
2023-02-22T18:09:01.138Z,8.1
2023-02-22T18:14:35.133Z,8
2023-02-22T18:20:17.361Z,7.9
2023-02-22T18:26:08.853Z,8
2023-02-22T18:31:27.573Z,7.9
2023-02-22T18:36:53.231Z,8
2023-02-22T18:42:15.519Z,8
2023-02-22T18:48:14.527Z,8
2023-02-22T18:53:47.193Z,7.9
2023-02-22T18:59:10.228Z,7.9
2023-02-22T19:04:57.563Z,8
2023-02-22T19:10:08.970Z,7.9
2023-02-22T19:15:37.014Z,7.8
2023-02-22T19:21:21.192Z,7.7
2023-02-22T19:26:44.051Z,7.9
2023-02-22T19:32:31.483Z,7.9
2023-02-22T19:38:00.533Z,7.9
2023-02-22T19:43:25.508Z,7.9
2023-02-22T19:49:10.601Z,7.9
2023-02-22T19:54:48.676Z,7.9
2023-02-22T20:00:27.176Z,8
2023-02-22T20:06:01.514Z,8
2023-02-22T20:11:13.111Z,8
2023-02-22T20:16:59.744Z,8
2023-02-22T20:22:20.572Z,8
2023-02-22T20:28:20.902Z,7.9
2023-02-22T20:33:52.306Z,7.9
2023-02-22T20:39:04.079Z,7.9
2023-02-22T20:44:46.262Z,7.9
2023-02-22T20:50:24.156Z,7.9
2023-02-22T20:55:44.153Z,7.8
2023-02-22T21:01:38.101Z,7.8
2023-02-22T21:07:11.469Z,7.9
2023-02-22T21:12:33.669Z,7.9
2023-02-22T21:18:10.467Z,7.9
2023-02-22T21:23:29.477Z,7.9
2023-02-22T21:29:25.932Z,7.9
2023-02-22T21:34:53.002Z,7.9
2023-02-22T21:40:34.577Z,7.9
2023-02-22T21:46:04.079Z,7.9
2023-02-22T21:51:24.412Z,7.9
2023-02-22T21:56:56.410Z,7.9
2023-02-22T22:02:27.482Z,7.8
2023-02-22T22:08:11.371Z,7.7
2023-02-22T22:13:47.415Z,7.8
2023-02-22T22:19:20.085Z,7.8
2023-02-22T22:25:03.080Z,7.8
2023-02-22T22:30:27.030Z,7.8
2023-02-22T22:35:52.388Z,7.8
2023-02-22T22:41:45.850Z,7.7
2023-02-22T22:46:59.866Z,7.7
2023-02-22T22:52:27.887Z,7.6
2023-02-22T22:58:02.579Z,7.5
2023-02-22T23:03:51.936Z,7.4
2023-02-22T23:09:11.422Z,7.5
2023-02-22T23:14:53.420Z,7.5
2023-02-22T23:20:28.940Z,7.4
2023-02-22T23:25:47.725Z,7.4
2023-02-22T23:31:42.482Z,7.3
2023-02-22T23:37:02.321Z,7.3
2023-02-22T23:42:33.267Z,7.2
2023-02-22T23:48:13.461Z,7.1
2023-02-22T23:53:48.075Z,7.1
2023-02-22T23:59:14.518Z,7.3
